createdAt,value
2018-12-15T00:01:44.092Z,20.63
2018-12-15T00:04:14.367Z,23.03
2018-12-15T00:06:45.245Z,23.17
2018-12-15T00:09:16.001Z,21.93
2018-12-15T00:11:46.013Z,21.50
2018-12-15T00:14:16.692Z,19.80
2018-12-15T00:16:47.081Z,21.97
2018-12-15T00:19:17.649Z,23.43
2018-12-15T00:21:47.802Z,23.37
2018-12-15T00:24:18.020Z,21.33
2018-12-15T00:26:48.038Z,23.70
2018-12-15T00:29:18.409Z,22.30
2018-12-15T00:31:49.705Z,22.43
2018-12-15T00:34:19.884Z,24.10
2018-12-15T00:36:51.445Z,23.83
2018-12-15T00:39:21.995Z,22.17
2018-12-15T00:41:52.294Z,22.50
2018-12-15T00:44:22.891Z,20.27
2018-12-15T00:46:53.758Z,21.30
2018-12-15T00:49:23.879Z,21.10
2018-12-15T00:51:55.106Z,22.50
2018-12-15T00:54:25.913Z,21.30
2018-12-15T00:56:55.889Z,21.67
2018-12-15T00:59:26.604Z,21.43
2018-12-15T01:01:56.780Z,21.67
2018-12-15T01:04:26.819Z,21.77
2018-12-15T01:06:56.981Z,21.83
2018-12-15T01:09:27.130Z,21.60
2018-12-15T01:11:57.305Z,20.93
2018-12-15T01:14:27.435Z,20.77
2018-12-15T01:16:57.595Z,21.97
2018-12-15T01:19:28.434Z,20.47
2018-12-15T01:21:58.481Z,20.00
2018-12-15T01:24:29.293Z,22.40
2018-12-15T01:26:59.562Z,20.20
2018-12-15T01:29:30.590Z,21.23
2018-12-15T01:32:00.833Z,18.47
2018-12-15T01:34:31.081Z,22.00
2018-12-15T01:37:01.680Z,21.13
2018-12-15T01:39:32.781Z,21.17
2018-12-15T01:42:02.833Z,19.37
2018-12-15T01:44:33.464Z,22.03
2018-12-15T01:47:03.660Z,18.43
2018-12-15T01:49:33.688Z,21.90
2018-12-15T01:52:03.954Z,21.10
2018-12-15T01:54:34.083Z,19.60
2018-12-15T01:57:05.592Z,19.40
2018-12-15T01:59:35.633Z,19.67
2018-12-15T02:02:05.741Z,21.77
2018-12-15T02:04:35.918Z,19.30
2018-12-15T02:07:06.722Z,19.10
2018-12-15T02:09:36.934Z,21.10
2018-12-15T02:12:07.478Z,20.83
2018-12-15T02:14:37.718Z,19.30
2018-12-15T02:17:07.915Z,20.33
2018-12-15T02:19:38.071Z,19.53
2018-12-15T02:22:08.962Z,19.90
2018-12-15T02:24:39.193Z,19.60
2018-12-15T02:27:09.245Z,20.40
2018-12-15T02:29:39.452Z,20.27
2018-12-15T02:32:09.524Z,20.53
2018-12-15T02:34:40.107Z,20.60
2018-12-15T02:37:10.207Z,19.93
2018-12-15T02:39:40.417Z,21.07
2018-12-15T02:42:10.501Z,21.23
2018-12-15T02:44:41.442Z,20.17
2018-12-15T02:47:11.377Z,21.00
2018-12-15T02:49:41.554Z,21.87
2018-12-15T02:52:12.098Z,22.20
2018-12-15T02:54:42.886Z,20.13
2018-12-15T02:57:13.702Z,21.20
2018-12-15T02:59:44.566Z,21.90
2018-12-15T03:02:14.777Z,21.30
2018-12-15T03:04:44.877Z,21.00
2018-12-15T03:07:14.991Z,21.77
2018-12-15T03:09:45.178Z,22.73
2018-12-15T03:12:15.261Z,22.30
2018-12-15T03:14:46.776Z,24.00
2018-12-15T03:17:17.945Z,22.97
2018-12-15T03:19:48.883Z,22.07
2018-12-15T03:22:19.596Z,23.70
2018-12-15T03:24:50.371Z,21.60
2018-12-15T03:27:20.469Z,21.83
2018-12-15T03:29:50.835Z,22.40
2018-12-15T03:32:21.047Z,21.43
2018-12-15T03:34:51.328Z,23.50
2018-12-15T03:37:21.531Z,23.83
2018-12-15T03:39:51.574Z,22.67
2018-12-15T03:42:22.671Z,23.07
2018-12-15T03:44:52.758Z,22.23
2018-12-15T03:47:24.050Z,23.23
2018-12-15T03:49:54.215Z,24.23
2018-12-15T03:52:25.573Z,22.83
2018-12-15T03:54:55.792Z,23.90
2018-12-15T03:57:25.877Z,24.00
2018-12-15T03:59:55.963Z,23.93
2018-12-15T04:02:26.871Z,24.40
2018-12-15T04:04:57.941Z,23.33
2018-12-15T04:07:28.032Z,23.67
2018-12-15T04:09:58.094Z,23.40
2018-12-15T04:12:28.305Z,23.63
2018-12-15T04:14:58.688Z,25.33
2018-12-15T04:17:29.327Z,24.97
2018-12-15T04:19:59.344Z,26.47
2018-12-15T04:22:29.427Z,25.70
2018-12-15T04:25:01.018Z,27.00
2018-12-15T04:27:31.054Z,26.07
2018-12-15T04:30:01.627Z,26.87
2018-12-15T04:32:31.785Z,27.00
2018-12-15T04:35:02.541Z,26.10
2018-12-15T04:37:32.570Z,26.50
2018-12-15T04:40:03.330Z,26.23
2018-12-15T04:42:33.230Z,27.20
2018-12-15T04:45:04.366Z,27.90
2018-12-15T04:47:34.580Z,26.47
2018-12-15T04:50:05.094Z,26.20
2018-12-15T04:52:35.171Z,28.53
2018-12-15T04:55:05.880Z,25.60
2018-12-15T04:57:36.510Z,27.50
2018-12-15T05:00:08.197Z,26.40
2018-12-15T05:02:43.811Z,26.87
2018-12-15T05:05:11.291Z,28.30
2018-12-15T05:07:41.415Z,26.10
2018-12-15T05:10:11.546Z,27.23
2018-12-15T05:12:41.673Z,27.30
2018-12-15T05:15:11.735Z,27.57
2018-12-15T05:17:41.690Z,25.43
2018-12-15T05:20:11.780Z,26.90
2018-12-15T05:22:41.906Z,26.80
2018-12-15T05:25:12.999Z,27.10
2018-12-15T05:27:44.039Z,26.40
2018-12-15T05:30:14.227Z,27.23
2018-12-15T05:32:44.203Z,24.60
2018-12-15T05:35:14.455Z,27.13
2018-12-15T05:37:45.151Z,27.37
2018-12-15T05:40:15.845Z,26.87
2018-12-15T05:42:46.115Z,26.63
2018-12-15T05:45:17.420Z,26.53
2018-12-15T05:47:47.556Z,25.10
2018-12-15T05:50:18.060Z,26.77
2018-12-15T05:52:48.967Z,28.53
2018-12-15T05:55:20.040Z,27.10
2018-12-15T05:57:50.231Z,26.80
2018-12-15T06:00:20.534Z,25.50
2018-12-15T06:02:50.833Z,26.40
2018-12-15T06:05:21.232Z,27.27
2018-12-15T06:07:54.539Z,26.67
2018-12-15T06:10:24.560Z,26.07
2018-12-15T06:12:54.552Z,25.03
2018-12-15T06:15:24.644Z,24.57
2018-12-15T06:17:54.688Z,24.97
2018-12-15T06:20:25.010Z,25.37
2018-12-15T06:22:55.126Z,27.57
2018-12-15T06:25:25.865Z,24.10
2018-12-15T06:27:55.936Z,24.47
2018-12-15T06:30:26.685Z,24.33
2018-12-15T06:32:57.262Z,25.77
2018-12-15T06:35:27.332Z,25.30
2018-12-15T06:37:57.442Z,23.40
2018-12-15T06:40:27.686Z,24.87
2018-12-15T06:42:57.985Z,26.43
2018-12-15T06:45:28.130Z,25.80
2018-12-15T06:47:58.098Z,25.20
2018-12-15T06:50:28.820Z,24.93
2018-12-15T06:52:59.111Z,22.40
2018-12-15T06:55:29.338Z,22.50
2018-12-15T06:57:59.958Z,24.00
2018-12-15T07:00:30.107Z,23.13
2018-12-15T07:03:00.810Z,22.40
2018-12-15T07:05:31.116Z,24.00
2018-12-15T07:08:01.253Z,23.30
2018-12-15T07:10:31.269Z,23.90
2018-12-15T07:13:01.325Z,25.40
2018-12-15T07:15:31.554Z,23.07
2018-12-15T07:18:02.769Z,22.10
2018-12-15T07:20:33.422Z,22.53
2018-12-15T07:23:04.136Z,22.53
2018-12-15T07:25:35.207Z,24.40
2018-12-15T07:28:06.498Z,20.37
2018-12-15T07:30:36.956Z,19.90
2018-12-15T07:33:07.123Z,24.10
2018-12-15T07:35:37.847Z,22.00
2018-12-15T07:38:08.003Z,22.73
2018-12-15T07:40:38.321Z,20.87
2018-12-15T07:43:08.393Z,22.57
2018-12-15T07:45:39.092Z,21.90
2018-12-15T07:48:09.223Z,23.13
2018-12-15T07:50:40.420Z,21.50
2018-12-15T07:53:10.526Z,20.40
2018-12-15T07:55:40.681Z,21.43
2018-12-15T07:58:10.913Z,21.03
2018-12-15T08:00:41.565Z,21.43
2018-12-15T08:03:11.721Z,19.50
2018-12-15T08:05:41.954Z,19.43
2018-12-15T08:08:12.194Z,19.07
2018-12-15T08:10:48.914Z,19.73
2018-12-15T08:13:32.932Z,18.67
2018-12-15T08:16:03.177Z,19.20
2018-12-15T08:18:36.470Z,19.17
2018-12-15T08:21:06.747Z,19.90
2018-12-15T08:23:37.318Z,18.63
2018-12-15T08:26:07.559Z,17.50
2018-12-15T08:28:38.221Z,19.70
2018-12-15T08:31:08.490Z,19.40
2018-12-15T08:33:38.737Z,17.37
2018-12-15T08:36:09.224Z,17.70
2018-12-15T08:38:39.495Z,18.30
2018-12-15T08:41:10.131Z,16.87
2018-12-15T08:43:40.282Z,19.07
2018-12-15T08:46:14.336Z,18.20
2018-12-15T08:48:45.091Z,18.93
2018-12-15T08:51:15.481Z,17.73
2018-12-15T08:53:46.870Z,18.10
2018-12-15T08:56:17.079Z,18.20
2018-12-15T08:58:47.875Z,17.70
2018-12-15T09:01:18.151Z,15.33
2018-12-15T09:03:49.004Z,17.93
2018-12-15T09:06:19.959Z,17.57
2018-12-15T09:08:51.808Z,18.03
2018-12-15T09:11:22.001Z,17.17
2018-12-15T09:13:52.775Z,17.57
2018-12-15T09:16:26.370Z,15.67
2018-12-15T09:18:55.080Z,16.67
2018-12-15T09:21:26.602Z,15.77
2018-12-15T09:23:56.451Z,17.43
2018-12-15T09:26:26.353Z,15.23
2018-12-15T09:28:56.220Z,15.40
2018-12-15T09:31:26.158Z,16.00
2018-12-15T09:33:56.925Z,17.27
2018-12-15T09:36:27.437Z,14.40
2018-12-15T09:38:59.588Z,15.90
2018-12-15T09:41:30.665Z,14.80
2018-12-15T09:44:00.629Z,14.87
2018-12-15T09:46:31.556Z,14.20
2018-12-15T09:49:02.806Z,14.90
2018-12-15T09:51:33.587Z,13.90
2018-12-15T09:54:03.781Z,15.10
2018-12-15T09:56:34.001Z,14.70
2018-12-15T09:59:04.631Z,14.83
2018-12-15T10:01:34.960Z,14.17
2018-12-15T10:04:05.881Z,15.13
2018-12-15T10:06:36.140Z,13.23
2018-12-15T10:09:07.777Z,13.90
2018-12-15T10:11:39.013Z,13.67
2018-12-15T10:14:09.654Z,12.83
2018-12-15T10:16:40.817Z,15.47
2018-12-15T10:19:10.842Z,13.40
2018-12-15T10:21:41.699Z,13.40
2018-12-15T10:24:11.823Z,14.60
2018-12-15T10:26:43.349Z,13.87
2018-12-15T10:29:18.443Z,13.50
2018-12-15T10:31:53.545Z,13.00
2018-12-15T10:34:23.651Z,15.73
2018-12-15T10:36:54.441Z,14.60
2018-12-15T10:39:24.693Z,15.77
2018-12-15T10:41:54.842Z,14.60
2018-12-15T10:44:25.357Z,13.20
2018-12-15T10:46:57.260Z,16.23
2018-12-15T10:49:30.830Z,14.77
2018-12-15T10:52:00.342Z,14.03
2018-12-15T10:54:30.403Z,15.90
2018-12-15T10:57:01.039Z,17.20
2018-12-15T10:59:31.039Z,16.47
2018-12-15T11:02:01.954Z,14.00
2018-12-15T11:04:32.101Z,16.03
2018-12-15T11:07:02.224Z,17.73
2018-12-15T11:09:32.358Z,14.87
2018-12-15T11:12:02.385Z,16.47
2018-12-15T11:14:32.419Z,16.17
2018-12-15T11:17:03.772Z,15.40
2018-12-15T11:19:37.176Z,15.80
2018-12-15T11:22:08.165Z,17.60
2018-12-15T11:24:39.235Z,18.60
2018-12-15T11:27:09.846Z,16.17
2018-12-15T11:29:40.195Z,17.60
2018-12-15T11:32:10.859Z,18.33
2018-12-15T11:34:40.754Z,17.57
2018-12-15T11:37:11.384Z,18.40
2018-12-15T11:39:41.642Z,18.50
2018-12-15T11:42:11.786Z,18.83
2018-12-15T11:44:42.485Z,19.73
2018-12-15T11:47:13.823Z,18.80
2018-12-15T11:49:43.918Z,19.60
2018-12-15T11:52:14.487Z,18.07
2018-12-15T11:54:45.133Z,18.30
2018-12-15T11:57:15.191Z,18.23
2018-12-15T11:59:47.030Z,18.67
2018-12-15T12:02:18.252Z,18.40
2018-12-15T12:04:48.905Z,18.67
2018-12-15T12:07:18.955Z,18.77
2018-12-15T12:09:48.988Z,18.43
2018-12-15T12:12:19.265Z,19.93
2018-12-15T12:14:50.133Z,19.37
2018-12-15T12:17:20.950Z,18.83
2018-12-15T12:19:50.939Z,27.00
2018-12-15T12:22:21.132Z,20.40
2018-12-15T12:24:51.377Z,19.83
2018-12-15T12:27:21.705Z,19.63
2018-12-15T12:29:51.766Z,19.00
2018-12-15T12:32:23.217Z,18.90
2018-12-15T12:34:53.872Z,18.53
2018-12-15T12:37:25.343Z,18.27
2018-12-15T12:39:56.310Z,17.03
2018-12-15T12:42:26.604Z,19.63
2018-12-15T12:44:56.602Z,19.33
2018-12-15T12:47:28.138Z,15.20
2018-12-15T12:49:58.696Z,14.17
2018-12-15T12:52:30.242Z,15.40
2018-12-15T12:55:01.495Z,15.33
2018-12-15T12:57:34.036Z,15.00
2018-12-15T13:00:04.538Z,17.17
2018-12-15T13:02:34.839Z,15.60
2018-12-15T13:05:05.977Z,15.70
2018-12-15T13:07:36.140Z,15.73
2018-12-15T13:10:06.692Z,15.60
2018-12-15T13:12:36.947Z,15.90
2018-12-15T13:15:07.706Z,15.73
2018-12-15T13:17:38.209Z,16.17
2018-12-15T13:20:08.840Z,17.23
2018-12-15T13:22:38.879Z,16.23
2018-12-15T13:25:09.810Z,15.30
2018-12-15T13:27:39.974Z,15.07
2018-12-15T13:30:11.774Z,15.23
2018-12-15T13:32:42.744Z,16.37
2018-12-15T13:35:12.846Z,14.67
2018-12-15T13:37:42.958Z,15.00
2018-12-15T13:40:13.153Z,15.63
2018-12-15T13:42:44.589Z,15.47
2018-12-15T13:45:14.741Z,15.77
2018-12-15T13:47:45.059Z,15.80
2018-12-15T13:50:14.981Z,14.90
2018-12-15T13:52:44.949Z,16.20
2018-12-15T13:55:14.856Z,14.43
2018-12-15T13:57:44.830Z,14.43
2018-12-15T14:00:14.717Z,14.20
2018-12-15T14:02:44.965Z,14.07
2018-12-15T14:05:15.598Z,14.97
2018-12-15T14:07:45.766Z,13.20
2018-12-15T14:10:15.880Z,13.27
2018-12-15T14:12:47.074Z,12.10
2018-12-15T14:15:17.223Z,12.10
2018-12-15T14:17:47.794Z,12.60
2018-12-15T14:20:18.060Z,11.63
2018-12-15T14:22:48.856Z,12.13
2018-12-15T14:25:18.825Z,11.50
2018-12-15T14:27:48.958Z,11.50
2018-12-15T14:30:20.519Z,11.73
2018-12-15T14:32:50.935Z,11.50
2018-12-15T14:35:20.877Z,11.33
2018-12-15T14:37:52.118Z,13.30
2018-12-15T14:40:22.274Z,11.20
2018-12-15T14:42:52.556Z,11.33
2018-12-15T14:45:23.331Z,10.73
2018-12-15T14:47:53.748Z,11.43
2018-12-15T14:50:24.364Z,10.27
2018-12-15T14:52:54.498Z,11.43
2018-12-15T14:55:25.080Z,11.30
2018-12-15T14:57:55.444Z,9.73
2018-12-15T15:00:27.118Z,10.17
2018-12-15T15:02:57.372Z,11.10
2018-12-15T15:05:27.613Z,9.50
2018-12-15T15:07:57.989Z,9.30
2018-12-15T15:10:28.214Z,11.10
2018-12-15T15:12:58.328Z,12.13
2018-12-15T15:15:28.537Z,12.10
2018-12-15T15:17:59.590Z,11.50
2018-12-15T15:20:30.297Z,11.10
2018-12-15T15:23:00.493Z,11.57
2018-12-15T15:25:31.098Z,11.03
2018-12-15T15:28:01.225Z,10.67
2018-12-15T15:30:31.394Z,13.40
2018-12-15T15:33:01.669Z,12.00
2018-12-15T15:35:31.911Z,11.33
2018-12-15T15:38:02.629Z,14.57
2018-12-15T15:40:32.767Z,12.13
2018-12-15T15:43:03.632Z,12.53
2018-12-15T15:45:33.769Z,13.33
2018-12-15T15:48:04.287Z,15.00
2018-12-15T15:50:36.633Z,13.07
2018-12-15T15:53:07.722Z,14.03
2018-12-15T15:55:38.440Z,14.47
2018-12-15T15:58:08.641Z,14.63
2018-12-15T16:00:39.417Z,16.57
2018-12-15T16:03:09.509Z,15.97
2018-12-15T16:05:40.264Z,16.10
2018-12-15T16:08:11.104Z,16.90
2018-12-15T16:10:41.277Z,18.17
2018-12-15T16:13:11.967Z,18.40
2018-12-15T16:15:42.621Z,16.13
2018-12-15T16:18:13.422Z,18.37
2018-12-15T16:20:43.714Z,17.47
2018-12-15T16:23:13.972Z,19.53
2018-12-15T16:25:44.198Z,21.07
2018-12-15T16:28:14.384Z,21.47
2018-12-15T16:30:45.162Z,19.57
2018-12-15T16:33:15.299Z,19.03
2018-12-15T16:35:46.055Z,19.93
2018-12-15T16:38:40.840Z,21.10
2018-12-15T16:41:11.375Z,21.70
2018-12-15T16:43:42.271Z,19.00
2018-12-15T16:46:12.411Z,23.03
2018-12-15T16:48:42.588Z,22.93
2018-12-15T16:51:13.701Z,20.97
2018-12-15T16:53:44.940Z,21.30
2018-12-15T16:56:15.035Z,21.90
2018-12-15T16:58:45.257Z,20.00
2018-12-15T17:01:15.595Z,20.87
2018-12-15T17:03:46.421Z,20.53
2018-12-15T17:06:17.071Z,22.30
2018-12-15T17:08:47.347Z,20.37
2018-12-15T17:11:17.944Z,20.23
2018-12-15T17:13:54.606Z,22.03
2018-12-15T17:16:24.728Z,18.03
2018-12-15T17:18:54.834Z,20.73
2018-12-15T17:21:24.917Z,19.23
2018-12-15T17:23:55.813Z,19.10
2018-12-15T17:26:25.957Z,17.60
2018-12-15T17:28:55.976Z,16.37
2018-12-15T17:31:26.776Z,18.80
2018-12-15T17:33:57.009Z,18.20
2018-12-15T17:36:27.256Z,19.33
2018-12-15T17:38:58.250Z,17.80
2018-12-15T17:41:28.521Z,27.50
2018-12-15T17:43:58.729Z,19.73
2018-12-15T17:46:28.903Z,18.67
2018-12-15T17:48:58.957Z,18.20
2018-12-15T17:51:29.060Z,19.63
2018-12-15T17:53:59.450Z,19.60
2018-12-15T17:56:29.587Z,20.50
2018-12-15T17:59:01.782Z,20.20
2018-12-15T18:01:31.878Z,18.87
2018-12-15T18:04:02.843Z,19.20
2018-12-15T18:06:33.052Z,20.43
2018-12-15T18:09:06.007Z,18.40
2018-12-15T18:11:36.200Z,19.93
2018-12-15T18:14:07.102Z,21.87
2018-12-15T18:16:37.262Z,22.30
2018-12-15T18:19:08.294Z,19.27
2018-12-15T18:21:38.395Z,20.57
2018-12-15T18:24:09.184Z,21.70
2018-12-15T18:26:39.307Z,20.33
2018-12-15T18:29:09.458Z,19.70
2018-12-15T18:31:39.654Z,17.70
2018-12-15T18:34:11.172Z,18.27
2018-12-15T18:36:41.402Z,18.17
2018-12-15T18:39:12.218Z,18.60
2018-12-15T18:41:42.336Z,15.20
2018-12-15T18:44:12.479Z,16.47
2018-12-15T18:46:42.740Z,16.37
2018-12-15T18:49:13.218Z,15.87
2018-12-15T18:51:43.778Z,18.10
2018-12-15T18:54:15.026Z,12.30
2018-12-15T18:56:45.687Z,15.50
2018-12-15T18:59:15.910Z,14.40
2018-12-15T19:01:46.765Z,16.50
2018-12-15T19:04:17.353Z,17.00
2018-12-15T19:06:47.317Z,16.73
2018-12-15T19:09:18.071Z,16.13
2018-12-15T19:11:48.389Z,16.93
2018-12-15T19:14:19.796Z,17.43
2018-12-15T19:16:50.366Z,18.07
2018-12-15T19:19:21.141Z,17.70
2018-12-15T19:21:51.170Z,18.00
2018-12-15T19:24:22.053Z,17.47
2018-12-15T19:26:52.433Z,17.33
2018-12-15T19:29:23.527Z,16.23
2018-12-15T19:31:54.364Z,15.37
2018-12-15T19:34:24.448Z,17.30
2018-12-15T19:36:54.711Z,18.00
2018-12-15T19:39:24.999Z,17.30
2018-12-15T19:41:55.911Z,14.90
2018-12-15T19:44:26.736Z,14.00
2018-12-15T19:46:56.775Z,16.60
2018-12-15T19:49:27.090Z,17.40
2018-12-15T19:51:57.265Z,14.77
2018-12-15T19:54:28.013Z,16.50
2018-12-15T19:56:58.295Z,16.87
2018-12-15T19:59:29.516Z,15.57
2018-12-15T20:01:59.621Z,15.20
2018-12-15T20:04:29.762Z,16.20
2018-12-15T20:07:00.095Z,16.73
2018-12-15T20:09:30.880Z,16.53
2018-12-15T20:12:01.040Z,15.83
2018-12-15T20:14:31.353Z,14.60
2018-12-15T20:17:02.344Z,16.20
2018-12-15T20:19:32.365Z,16.80
2018-12-15T20:22:02.497Z,16.07
2018-12-15T20:24:32.674Z,14.07
2018-12-15T20:27:03.483Z,15.10
2018-12-15T20:29:33.818Z,13.17
2018-12-15T20:32:04.130Z,13.30
2018-12-15T20:34:34.444Z,14.30
2018-12-15T20:37:04.702Z,17.20
2018-12-15T20:39:36.507Z,14.50
2018-12-15T20:42:07.195Z,17.83
2018-12-15T20:44:41.694Z,13.90
2018-12-15T20:47:11.176Z,16.07
2018-12-15T20:49:41.417Z,18.60
2018-12-15T20:52:12.242Z,17.23
2018-12-15T20:54:42.327Z,16.13
2018-12-15T20:57:13.118Z,14.43
2018-12-15T20:59:43.513Z,16.43
2018-12-15T21:02:13.644Z,14.83
2018-12-15T21:04:43.886Z,15.93
2018-12-15T21:07:13.977Z,14.10
2018-12-15T21:09:44.739Z,13.67
2018-12-15T21:12:14.947Z,13.67
2018-12-15T21:14:45.303Z,15.77
2018-12-15T21:17:15.427Z,15.90
2018-12-15T21:19:48.086Z,15.77
2018-12-15T21:22:17.695Z,15.33
2018-12-15T21:24:49.273Z,15.47
2018-12-15T21:27:19.878Z,12.20
2018-12-15T21:29:50.214Z,12.47
2018-12-15T21:32:20.488Z,13.30
2018-12-15T21:34:50.535Z,11.80
2018-12-15T21:37:20.704Z,11.60
2018-12-15T21:39:51.449Z,13.20
2018-12-15T21:42:21.545Z,13.97
2018-12-15T21:44:51.788Z,13.57
2018-12-15T21:47:22.514Z,17.70
2018-12-15T21:49:53.194Z,16.43
2018-12-15T21:52:23.197Z,17.10
2018-12-15T21:54:53.297Z,21.47
2018-12-15T21:57:23.338Z,20.67
2018-12-15T21:59:53.617Z,21.40
2018-12-15T22:02:24.616Z,22.53
2018-12-15T22:04:55.182Z,20.67
2018-12-15T22:07:25.982Z,20.63
2018-12-15T22:09:56.174Z,22.53
2018-12-15T22:12:26.947Z,22.07
2018-12-15T22:14:57.786Z,22.00
2018-12-15T22:17:27.909Z,19.77
2018-12-15T22:19:58.783Z,21.80
2018-12-15T22:22:28.753Z,21.87
2018-12-15T22:24:58.883Z,22.30
2018-12-15T22:27:29.054Z,21.77
2018-12-15T22:29:59.774Z,21.47
2018-12-15T22:32:29.954Z,20.97
2018-12-15T22:35:00.105Z,21.10
2018-12-15T22:37:30.209Z,22.83
2018-12-15T22:40:00.387Z,22.63
2018-12-15T22:42:30.599Z,20.57
2018-12-15T22:45:00.676Z,19.30
2018-12-15T22:47:31.522Z,19.97
2018-12-15T22:50:01.809Z,20.67
2018-12-15T22:52:32.586Z,22.50
2018-12-15T22:55:03.380Z,18.93
2018-12-15T22:57:34.578Z,20.27
2018-12-15T23:00:06.391Z,21.10
2018-12-15T23:02:37.221Z,19.23
2018-12-15T23:05:08.020Z,19.20
2018-12-15T23:07:38.793Z,19.67
2018-12-15T23:10:09.967Z,21.10
2018-12-15T23:12:40.780Z,19.37
2018-12-15T23:15:10.865Z,20.60
2018-12-15T23:17:41.008Z,23.37
2018-12-15T23:20:11.193Z,21.47
2018-12-15T23:22:41.976Z,24.30
2018-12-15T23:25:12.113Z,23.03
2018-12-15T23:27:42.406Z,20.73
2018-12-15T23:30:13.438Z,22.03
2018-12-15T23:32:43.489Z,20.77
2018-12-15T23:35:13.673Z,21.40
2018-12-15T23:37:43.956Z,19.90
2018-12-15T23:40:14.777Z,21.57
2018-12-15T23:42:46.245Z,21.50
2018-12-15T23:45:16.953Z,19.37
2018-12-15T23:47:47.664Z,20.00
2018-12-15T23:50:17.862Z,18.70
2018-12-15T23:52:48.640Z,20.43
2018-12-15T23:55:19.139Z,18.80
2018-12-15T23:57:49.561Z,19.57
